METAR UND TAF INFORMATION
OEJN 151500Z 32011KT CAVOK 33/21 Q1004 NOSIG

 FLUGHAFENKARTE

 RUNWAY INFORMATION
Runway 16C Runway length 10825 ft Runway width 197 ft
Runway elevation 26 ft Runway displaced threshold 0 ft Runway heading 160
Runway 34C Runway length 10825 ft Runway width 197 ft
Runway elevation 26 ft Runway displaced threshold 0 ft Runway heading 340
Runway 16L Runway length 13123 ft Runway width 148 ft
Runway elevation 30 ft Runway displaced threshold 0 ft Runway heading 160
Runway 34R Runway length 13123 ft Runway width 148 ft
Runway elevation 48 ft Runway displaced threshold 0 ft Runway heading 340
Runway 16R Runway length 12467 ft Runway width 197 ft
Runway elevation 13 ft Runway displaced threshold 0 ft Runway heading 160
Runway 34L Runway length 12467 ft Runway width 197 ft
Runway elevation 13 ft Runway displaced threshold 0 ft Runway heading 340

 AIRPORT FREQUENCIES
Type APP Name JEDDAH APP Frequency 119.1 MHZ
Type ATIS Name ATIS Frequency 126.2 MHZ
Type CLD Name JEDDAH CLN Frequency 121.8 MHZ
Type GND Name GND Frequency 121.6 MHZ
Type TWR Name JEDDAH TWR Frequency 118.2 MHZ

 AIRPORT NEAR NAVIGATION AIDS
Type VORTAC Name King Abdulaziz Frequency 114900 KHZ